createdAt,value
2018-12-25T00:00:13.580Z,102000.25
2018-12-25T00:02:49.576Z,102002.97
2018-12-25T00:05:25.162Z,102000.20
2018-12-25T00:07:59.030Z,102003.56
2018-12-25T00:10:30.830Z,102010.76
2018-12-25T00:13:05.919Z,102013.34
2018-12-25T00:15:45.384Z,102009.50
2018-12-25T00:18:17.470Z,102009.12
2018-12-25T00:20:57.976Z,102007.06
2018-12-25T00:23:32.332Z,102003.44
2018-12-25T00:26:12.974Z,102008.02
2018-12-25T00:29:01.671Z,102006.35
2018-12-25T00:31:40.056Z,102002.77
2018-12-25T00:34:17.348Z,102004.86
2018-12-25T00:36:53.158Z,102003.01
2018-12-25T00:39:32.904Z,102007.94
2018-12-25T00:43:02.349Z,101998.78
2018-12-25T00:46:50.826Z,101997.02
2018-12-25T01:09:52.237Z,101993.17
2018-12-25T01:12:28.764Z,101989.14
2018-12-25T01:15:22.843Z,101990.11
2018-12-25T01:18:03.574Z,101986.28
2018-12-25T01:24:26.477Z,101995.00
2018-12-25T01:27:10.585Z,101991.41
2018-12-25T01:38:21.512Z,102004.85
2018-12-25T01:41:31.293Z,101996.14
2018-12-25T01:44:44.217Z,102004.86
2018-12-25T01:48:41.365Z,102001.70
2018-12-25T01:51:29.895Z,102001.17
2018-12-25T01:54:23.945Z,102009.18
2018-12-25T01:57:04.046Z,102001.74
2018-12-25T01:59:41.369Z,102001.89
2018-12-25T02:02:22.786Z,102000.83
2018-12-25T02:05:05.981Z,101998.15
2018-12-25T02:07:48.484Z,101994.98
2018-12-25T02:10:27.974Z,101990.33
2018-12-25T02:13:11.282Z,101991.52
2018-12-25T02:15:51.188Z,101990.43
2018-12-25T02:18:31.663Z,101990.80
2018-12-25T02:21:10.613Z,101984.71
2018-12-25T02:23:47.922Z,101987.84
2018-12-25T02:26:22.128Z,101988.95
2018-12-25T02:29:01.418Z,101992.33
2018-12-25T02:31:43.730Z,101990.07
2018-12-25T02:34:17.489Z,101983.03
2018-12-25T02:36:55.051Z,101987.69
2018-12-25T02:39:27.218Z,101984.78
2018-12-25T02:42:06.840Z,101973.47
2018-12-25T02:44:44.116Z,101969.59
2018-12-25T02:47:26.202Z,101963.19
2018-12-25T02:50:11.135Z,101953.83
2018-12-25T02:52:51.827Z,101956.03
2018-12-25T02:55:26.809Z,101951.86
2018-12-25T02:58:02.952Z,101952.86
2018-12-25T03:00:38.286Z,101947.97
2018-12-25T03:03:16.250Z,101948.36
2018-12-25T03:05:48.358Z,101948.37
2018-12-25T03:08:30.833Z,101950.83
2018-12-25T03:11:12.705Z,101941.89
2018-12-25T03:13:48.026Z,101945.65
2018-12-25T03:16:21.557Z,101941.77
2018-12-25T03:18:59.044Z,101940.47
2018-12-25T03:21:37.393Z,101944.35
2018-12-25T03:24:17.349Z,101944.58
2018-12-25T03:27:03.881Z,101937.88
2018-12-25T03:29:39.982Z,101948.85
2018-12-25T03:32:21.481Z,101940.47
2018-12-25T03:34:53.433Z,101929.72
2018-12-25T03:37:32.340Z,101928.26
2018-12-25T03:40:36.552Z,101930.85
2018-12-25T03:43:21.620Z,101925.22
2018-12-25T03:45:57.543Z,101916.70
2018-12-25T03:48:33.575Z,101911.59
2018-12-25T03:51:08.165Z,101913.11
2018-12-25T03:53:39.746Z,101919.72
2018-12-25T03:56:11.395Z,101921.56
2018-12-25T03:58:45.855Z,101910.44
2018-12-25T04:01:19.476Z,101899.78
2018-12-25T04:03:51.047Z,101897.22
2018-12-25T04:06:22.712Z,101901.19
2018-12-25T04:08:54.303Z,101906.16
2018-12-25T04:11:25.975Z,101902.81
2018-12-25T04:14:01.644Z,101898.00
2018-12-25T04:16:33.291Z,101905.77
2018-12-25T04:19:04.951Z,101901.89
2018-12-25T04:21:36.667Z,101901.52
2018-12-25T04:24:08.434Z,101913.86
2018-12-25T04:26:41.790Z,101901.37
2018-12-25T04:29:13.575Z,101909.44
2018-12-25T04:31:47.971Z,101920.97
2018-12-25T04:34:19.699Z,101915.00
2018-12-25T04:36:54.393Z,101904.25
2018-12-25T04:39:27.363Z,101903.11
2018-12-25T04:41:59.980Z,101906.72
2018-12-25T04:44:51.049Z,101895.26
2018-12-25T04:47:32.919Z,101899.53
2018-12-25T04:50:12.658Z,101895.67
2018-12-25T04:53:00.048Z,101897.61
2018-12-25T04:55:31.811Z,101894.22
2018-12-25T04:58:03.569Z,101890.78
2018-12-25T05:00:36.887Z,101898.39
2018-12-25T05:03:08.641Z,101892.97
2018-12-25T05:05:40.229Z,101901.98
2018-12-25T05:08:11.848Z,101902.50
2018-12-25T05:10:43.475Z,101903.11
2018-12-25T05:13:15.120Z,101905.33
2018-12-25T05:15:49.813Z,101899.85
2018-12-25T05:18:21.501Z,101902.96
2018-12-25T05:20:53.160Z,101897.08
2018-12-25T05:23:24.743Z,101898.26
2018-12-25T05:25:56.457Z,101897.78
2018-12-25T05:28:28.036Z,101893.91
2018-12-25T05:30:59.766Z,101888.93
2018-12-25T05:33:31.340Z,101889.64
2018-12-25T05:36:03.051Z,101896.55
2018-12-25T05:38:34.722Z,101898.46
2018-12-25T05:41:06.378Z,101908.81
2018-12-25T05:43:38.043Z,101913.50
2018-12-25T05:46:09.687Z,101907.00
2018-12-25T05:48:41.258Z,101907.22
2018-12-25T05:51:15.043Z,101901.59
2018-12-25T05:53:48.849Z,101900.74
2018-12-25T05:56:20.451Z,101898.59
2018-12-25T05:58:52.169Z,101900.38
2018-12-25T06:01:23.865Z,101894.75
2018-12-25T06:03:55.508Z,101897.34
2018-12-25T06:06:27.137Z,101892.89
2018-12-25T06:08:58.759Z,101889.70
2018-12-25T06:11:30.453Z,101891.37
2018-12-25T06:14:02.022Z,101896.17
2018-12-25T06:16:35.505Z,101888.54
2018-12-25T06:19:07.071Z,101890.00
2018-12-25T06:21:38.910Z,101891.59
2018-12-25T06:24:10.561Z,101890.30
2018-12-25T06:26:42.217Z,101887.19
2018-12-25T06:29:13.904Z,101885.48
2018-12-25T06:31:46.562Z,101891.08
2018-12-25T06:34:18.182Z,101895.34
2018-12-25T06:36:51.623Z,101890.67
2018-12-25T06:39:23.244Z,101890.16
2018-12-25T06:41:54.922Z,101886.27
2018-12-25T06:44:26.488Z,101884.58
2018-12-25T06:46:59.734Z,101883.77
2018-12-25T06:49:31.397Z,101879.10
2018-12-25T06:52:02.962Z,101879.34
2018-12-25T06:54:34.551Z,101878.42
2018-12-25T06:57:06.280Z,101875.13
2018-12-25T06:59:37.903Z,101873.75
2018-12-25T07:02:09.728Z,101873.28
2018-12-25T07:04:43.842Z,101871.56
2018-12-25T07:07:21.838Z,101865.60
2018-12-25T07:09:55.093Z,101861.94
2018-12-25T07:12:27.332Z,101852.25
2018-12-25T07:15:01.680Z,101848.67
2018-12-25T07:17:36.416Z,101848.19
2018-12-25T07:20:08.644Z,101847.52
2018-12-25T07:22:40.915Z,101847.73
2018-12-25T07:26:12.255Z,101845.48
2018-12-25T07:28:44.974Z,101836.49
2018-12-25T07:31:19.748Z,101839.12
2018-12-25T07:37:11.080Z,101833.46
2018-12-25T07:57:06.008Z,101818.11
2018-12-25T07:59:42.073Z,101807.25
2018-12-25T08:02:18.210Z,101804.96
2018-12-25T08:05:03.292Z,101810.84
2018-12-25T08:07:38.161Z,101807.06
2018-12-25T08:10:19.101Z,101804.41
2018-12-25T08:12:54.066Z,101804.70
2018-12-25T08:15:31.935Z,101802.80
2018-12-25T08:18:04.173Z,101800.42
2018-12-25T08:20:35.958Z,101798.41
2018-12-25T08:23:07.967Z,101795.36
2018-12-25T08:25:39.637Z,101796.19
2018-12-25T08:28:11.345Z,101794.14
2018-12-25T08:30:43.217Z,101801.04
2018-12-25T08:33:14.818Z,101795.52
2018-12-25T08:35:46.466Z,101802.42
2018-12-25T08:38:20.025Z,101802.23
2018-12-25T08:40:51.673Z,101802.62
2018-12-25T08:43:25.513Z,101808.72
2018-12-25T08:46:01.899Z,101812.62
2018-12-25T08:48:35.345Z,101809.57
2018-12-25T08:51:08.792Z,101814.17
2018-12-25T08:53:42.271Z,101812.12
2018-12-25T08:56:14.386Z,101803.67
2018-12-25T08:58:49.864Z,101807.45
2018-12-25T09:01:22.350Z,101813.58
2018-12-25T09:03:57.151Z,101807.05
2018-12-25T09:06:29.829Z,101810.13
2018-12-25T09:09:04.165Z,101807.88
2018-12-25T09:11:38.778Z,101810.24
2018-12-25T09:14:10.778Z,101808.83
2018-12-25T09:16:42.773Z,101808.83
2018-12-25T09:19:16.729Z,101806.07
2018-12-25T09:21:48.728Z,101815.48
2018-12-25T09:24:22.119Z,101816.73
2018-12-25T09:26:53.932Z,101809.17
2018-12-25T09:29:26.160Z,101812.77
2018-12-25T09:31:58.727Z,101809.85
2018-12-25T09:34:31.499Z,101817.45
2018-12-25T09:37:11.583Z,101817.17
2018-12-25T09:39:46.017Z,101814.57
2018-12-25T09:42:18.495Z,101809.33
2018-12-25T09:44:50.342Z,101817.68
2018-12-25T09:47:21.973Z,101824.70
2018-12-25T09:49:53.748Z,101822.09
2018-12-25T09:52:25.444Z,101818.11
2018-12-25T09:54:57.175Z,101822.72
2018-12-25T09:57:28.894Z,101821.49
2018-12-25T10:00:00.577Z,101826.64
2018-12-25T10:02:32.307Z,101822.73
2018-12-25T10:05:04.184Z,101828.28
2018-12-25T10:07:35.955Z,101823.59
2018-12-25T10:10:13.413Z,101813.91
2018-12-25T10:12:46.766Z,101816.23
2018-12-25T10:15:18.556Z,101810.24
2018-12-25T10:17:52.941Z,101814.94
2018-12-25T10:20:28.196Z,101820.06
2018-12-25T10:23:01.734Z,101808.02
2018-12-25T10:25:33.529Z,101804.61
2018-12-25T10:28:05.579Z,101795.32
2018-12-25T10:30:42.457Z,101788.55
2018-12-25T10:33:14.322Z,101786.75
2018-12-25T10:35:46.096Z,101786.94
2018-12-25T10:38:17.974Z,101788.89
2018-12-25T10:40:57.800Z,101786.37
2018-12-25T10:43:29.537Z,101782.92
2018-12-25T10:46:01.237Z,101774.69
2018-12-25T10:48:32.895Z,101780.05
2018-12-25T10:51:04.915Z,101775.87
2018-12-25T10:53:38.862Z,101782.57
2018-12-25T10:56:10.470Z,101769.02
2018-12-25T10:58:42.191Z,101775.59
2018-12-25T11:01:28.646Z,101773.64
2018-12-25T11:04:00.385Z,101752.42
2018-12-25T11:06:32.045Z,101755.83
2018-12-25T11:09:04.337Z,101755.22
2018-12-25T11:11:36.201Z,101742.45
2018-12-25T11:14:07.824Z,101744.48
2018-12-25T11:16:39.644Z,101731.03
2018-12-25T11:19:11.360Z,101734.03
2018-12-25T11:21:42.969Z,101741.11
2018-12-25T11:24:14.604Z,101742.23
2018-12-25T11:26:46.458Z,101748.27
2018-12-25T11:29:18.233Z,101734.72
2018-12-25T11:31:49.963Z,101730.95
2018-12-25T11:34:21.834Z,101733.52
2018-12-25T11:36:54.232Z,101729.83
2018-12-25T11:39:26.152Z,101734.21
2018-12-25T11:41:58.370Z,101732.41
2018-12-25T11:44:30.312Z,101739.31
2018-12-25T11:47:05.024Z,101736.89
2018-12-25T11:49:36.990Z,101734.21
2018-12-25T11:52:08.669Z,101735.15
2018-12-25T11:54:40.416Z,101730.95
2018-12-25T11:57:12.143Z,101733.20
2018-12-25T11:59:43.774Z,101732.41
2018-12-25T12:02:17.183Z,101724.27
2018-12-25T12:04:48.711Z,101733.56
2018-12-25T12:07:20.706Z,101735.01
2018-12-25T12:09:52.513Z,101734.28
2018-12-25T12:12:24.185Z,101731.06
2018-12-25T12:14:55.914Z,101741.52
2018-12-25T12:17:27.536Z,101738.59
2018-12-25T12:19:59.265Z,101734.68
2018-12-25T12:23:46.317Z,101736.30
2018-12-25T12:26:16.415Z,101739.74
2018-12-25T12:28:48.359Z,101739.92
2018-12-25T12:31:20.502Z,101737.57
2018-12-25T12:33:52.303Z,101741.26
2018-12-25T12:36:24.134Z,101747.44
2018-12-25T12:38:56.135Z,101739.70
2018-12-25T12:41:32.907Z,101750.88
2018-12-25T12:44:10.022Z,101744.26
2018-12-25T12:46:41.967Z,101744.87
2018-12-25T13:01:08.659Z,101756.23
2018-12-25T13:03:40.431Z,101755.36
2018-12-25T13:06:12.277Z,101770.37
2018-12-25T13:08:43.978Z,101769.39
2018-12-25T13:11:16.826Z,101761.77
2018-12-25T13:13:48.746Z,101768.74
2018-12-25T13:16:20.525Z,101771.52
2018-12-25T13:18:52.316Z,101760.09
2018-12-25T13:21:25.679Z,101763.94
2018-12-25T13:24:03.378Z,101770.05
2018-12-25T13:26:35.523Z,101764.36
2018-12-25T13:29:07.244Z,101767.95
2018-12-25T13:31:39.076Z,101768.13
2018-12-25T13:34:10.760Z,101774.60
2018-12-25T13:36:42.520Z,101768.74
2018-12-25T13:39:14.255Z,101770.41
2018-12-25T13:41:46.119Z,101769.28
2018-12-25T13:44:17.730Z,101775.94
2018-12-25T13:46:51.725Z,101780.64
2018-12-25T13:49:23.849Z,101775.54
2018-12-25T13:51:56.758Z,101781.36
2018-12-25T13:54:28.459Z,101779.08
2018-12-25T13:57:00.439Z,101778.40
2018-12-25T13:59:32.163Z,101778.32
2018-12-25T14:02:04.252Z,101780.20
2018-12-25T14:04:36.135Z,101782.59
2018-12-25T14:07:07.846Z,101780.75
2018-12-25T14:09:39.669Z,101777.56
2018-12-25T14:12:11.410Z,101783.75
2018-12-25T14:14:46.066Z,101785.81
2018-12-25T14:17:17.660Z,101787.15
2018-12-25T14:19:49.423Z,101785.16
2018-12-25T14:22:21.025Z,101785.48
2018-12-25T14:24:52.673Z,101779.88
2018-12-25T14:27:24.381Z,101782.37
2018-12-25T14:29:56.046Z,101781.00
2018-12-25T14:32:27.805Z,101777.59
2018-12-25T14:34:59.462Z,101779.52
2018-12-25T14:37:31.122Z,101780.60
2018-12-25T14:40:02.796Z,101788.88
2018-12-25T14:42:34.435Z,101787.36
2018-12-25T14:45:08.257Z,101789.50
2018-12-25T14:47:40.028Z,101786.75
2018-12-25T14:50:11.649Z,101790.80
2018-12-25T14:52:43.273Z,101785.45
2018-12-25T14:55:20.829Z,101778.94
2018-12-25T14:57:52.539Z,101780.38
2018-12-25T15:00:24.243Z,101788.05
2018-12-25T15:02:55.872Z,101791.52
2018-12-25T15:05:27.608Z,101789.97
2018-12-25T15:07:59.177Z,101788.52
2018-12-25T15:10:30.786Z,101791.41
2018-12-25T15:13:02.362Z,101786.42
2018-12-25T15:15:33.996Z,101792.78
2018-12-25T15:18:05.640Z,101794.41
2018-12-25T15:20:37.274Z,101794.05
2018-12-25T15:23:08.845Z,101782.72
2018-12-25T15:25:40.449Z,101789.02
2018-12-25T15:28:12.176Z,101799.77
2018-12-25T15:30:43.806Z,101797.56
2018-12-25T15:33:15.537Z,101791.20
2018-12-25T15:35:47.318Z,101789.02
2018-12-25T15:38:18.969Z,101787.55
2018-12-25T15:40:50.660Z,101783.81
2018-12-25T15:43:22.332Z,101787.77
2018-12-25T15:45:53.886Z,101786.44
2018-12-25T15:48:25.545Z,101791.94
2018-12-25T15:50:57.166Z,101793.47
2018-12-25T15:53:36.611Z,101788.30
2018-12-25T15:56:02.140Z,101793.33
2018-12-25T15:58:33.827Z,101796.20
2018-12-25T16:01:08.575Z,101790.14
2018-12-25T16:03:40.314Z,101784.45
2018-12-25T16:06:11.925Z,101794.33
2018-12-25T16:08:44.844Z,101788.81
2018-12-25T16:11:21.624Z,101791.16
2018-12-25T16:13:53.267Z,101792.96
2018-12-25T16:16:25.376Z,101790.00
2018-12-25T16:18:57.080Z,101790.55
2018-12-25T16:21:31.866Z,101802.92
2018-12-25T16:24:06.467Z,101800.86
2018-12-25T16:26:38.174Z,101799.27
2018-12-25T16:29:10.041Z,101800.38
2018-12-25T16:31:41.929Z,101807.48
2018-12-25T16:34:16.312Z,101805.16
2018-12-25T16:36:55.335Z,101801.86
2018-12-25T16:39:29.432Z,101800.03
2018-12-25T16:42:11.140Z,101803.68
2018-12-25T16:44:48.081Z,101806.17
2018-12-25T16:47:25.222Z,101808.20
2018-12-25T16:50:06.886Z,101808.70
2018-12-25T16:52:38.872Z,101811.49
2018-12-25T16:55:11.098Z,101814.75
2018-12-25T16:57:44.323Z,101817.71
2018-12-25T17:00:20.771Z,101821.26
2018-12-25T17:03:34.307Z,101827.12
2018-12-25T17:06:33.183Z,101823.75
2018-12-25T17:09:10.219Z,101820.24
2018-12-25T17:11:54.034Z,101815.61
2018-12-25T17:14:38.405Z,101821.91
2018-12-25T17:17:40.306Z,101818.47
2018-12-25T17:20:14.855Z,101830.80
2018-12-25T17:23:03.296Z,101825.05
2018-12-25T17:26:05.471Z,101823.64
2018-12-25T17:28:36.746Z,101827.11
2018-12-25T17:31:10.764Z,101828.45
2018-12-25T17:33:42.143Z,101832.93
2018-12-25T17:36:13.944Z,101828.23
2018-12-25T17:38:45.976Z,101823.82
2018-12-25T17:41:17.916Z,101825.33
2018-12-25T17:43:49.811Z,101827.61
2018-12-25T17:46:21.626Z,101830.34
2018-12-25T17:48:53.473Z,101822.40
2018-12-25T17:51:25.392Z,101833.14
2018-12-25T17:53:57.236Z,101832.49
2018-12-25T17:59:51.760Z,101828.83
2018-12-25T18:02:23.545Z,101825.19
2018-12-25T18:04:55.433Z,101825.40
2018-12-25T18:07:27.263Z,101823.52
2018-12-25T18:09:59.096Z,101830.81
2018-12-25T18:12:31.085Z,101831.52
2018-12-25T18:15:02.832Z,101827.92
2018-12-25T18:17:34.835Z,101829.52
2018-12-25T18:20:07.156Z,101824.02
2018-12-25T18:22:39.105Z,101826.30
2018-12-25T18:25:10.826Z,101829.23
2018-12-25T18:27:42.971Z,101832.30
2018-12-25T18:30:14.870Z,101834.08
2018-12-25T18:32:46.597Z,101837.98
2018-12-25T18:35:18.432Z,101838.60
2018-12-25T18:37:50.456Z,101836.39
2018-12-25T18:40:22.416Z,101843.25
2018-12-25T18:42:54.247Z,101842.25
2018-12-25T18:45:26.114Z,101837.11
2018-12-25T18:47:57.977Z,101839.93
2018-12-25T18:50:30.112Z,101837.37
2018-12-25T18:53:02.110Z,101832.67
2018-12-25T18:55:33.963Z,101839.24
2018-12-25T18:58:06.045Z,101840.44
2018-12-25T19:00:37.918Z,101837.70
2018-12-25T19:03:09.784Z,101834.91
2018-12-25T19:05:41.765Z,101826.67
2018-12-25T19:08:13.606Z,101832.06
2018-12-25T19:10:45.503Z,101833.44
2018-12-25T19:13:17.490Z,101833.26
2018-12-25T19:15:52.321Z,101843.27
2018-12-25T19:18:25.319Z,101842.95
2018-12-25T19:20:57.066Z,101841.97
2018-12-25T19:23:29.525Z,101838.57
2018-12-25T19:26:01.595Z,101842.19
2018-12-25T19:28:33.600Z,101839.63
2018-12-25T19:31:08.069Z,101838.61
2018-12-25T19:33:39.913Z,101835.97
2018-12-25T19:36:11.647Z,101835.00
2018-12-25T19:38:43.489Z,101840.99
2018-12-25T19:41:15.104Z,101839.23
2018-12-25T19:43:47.397Z,101827.30
2018-12-25T19:46:22.412Z,101833.41
2018-12-25T19:48:54.493Z,101834.67
2018-12-25T19:51:29.326Z,101836.95
2018-12-25T19:54:01.434Z,101843.20
2018-12-25T19:56:34.630Z,101845.95
2018-12-25T19:59:08.893Z,101852.94
2018-12-25T20:01:40.594Z,101851.71
2018-12-25T20:05:03.093Z,101858.76
2018-12-25T20:08:43.525Z,101859.83
2018-12-25T20:12:21.411Z,101866.09
2018-12-25T20:16:04.192Z,101865.54
2018-12-25T20:19:25.337Z,101866.34
2018-12-25T20:23:14.250Z,101863.02
2018-12-25T20:26:37.315Z,101864.90
2018-12-25T20:30:24.606Z,101862.59
2018-12-25T20:34:10.559Z,101859.50
2018-12-25T20:37:54.040Z,101863.47
2018-12-25T20:41:29.300Z,101861.08
2018-12-25T20:44:45.297Z,101864.51
2018-12-25T20:48:31.369Z,101864.92
2018-12-25T20:52:16.962Z,101866.25
2018-12-25T20:55:55.484Z,101871.19
2018-12-25T20:59:17.715Z,101876.84
2018-12-25T21:02:45.105Z,101876.34
2018-12-25T21:06:36.971Z,101865.54
2018-12-25T21:10:29.160Z,101866.17
2018-12-25T21:14:34.663Z,101870.67
2018-12-25T21:18:29.487Z,101868.20
2018-12-25T21:22:11.841Z,101868.99
2018-12-25T21:25:37.101Z,101872.49
2018-12-25T21:28:06.407Z,101878.41
2018-12-25T21:30:38.290Z,101883.14
2018-12-25T21:33:10.263Z,101886.33
2018-12-25T21:35:41.957Z,101882.70
2018-12-25T21:38:14.688Z,101884.44
2018-12-25T21:40:46.433Z,101877.42
2018-12-25T21:43:18.654Z,101875.09
2018-12-25T21:45:50.898Z,101867.02
2018-12-25T21:48:22.703Z,101860.92
2018-12-25T21:50:54.782Z,101860.92
2018-12-25T21:53:27.230Z,101855.05
2018-12-25T21:55:59.130Z,101852.65
2018-12-25T21:58:32.008Z,101856.09
2018-12-25T22:01:04.565Z,101849.13
2018-12-25T22:03:37.550Z,101847.32
2018-12-25T22:06:09.390Z,101841.42
2018-12-25T22:08:41.192Z,101841.52
2018-12-25T22:11:12.817Z,101841.02
2018-12-25T22:13:44.767Z,101834.11
2018-12-25T22:16:16.580Z,101838.08
2018-12-25T22:18:48.585Z,101832.69
2018-12-25T22:21:20.370Z,101837.69
2018-12-25T22:23:52.479Z,101836.54
2018-12-25T22:26:24.524Z,101834.05
2018-12-25T22:28:56.272Z,101836.06
2018-12-25T22:31:28.237Z,101830.15
2018-12-25T22:34:00.404Z,101828.07
2018-12-25T22:36:32.373Z,101828.66
2018-12-25T22:39:05.348Z,101819.87
2018-12-25T22:41:37.332Z,101816.55
2018-12-25T22:44:10.362Z,101816.23
2018-12-25T22:46:42.150Z,101817.08
2018-12-25T22:49:14.896Z,101817.28
2018-12-25T22:51:46.918Z,101815.27
2018-12-25T22:54:18.771Z,101816.69
2018-12-25T22:56:50.678Z,101815.19
2018-12-25T22:59:22.443Z,101819.95
2018-12-25T23:01:54.459Z,101816.97
2018-12-25T23:04:26.434Z,101822.17
2018-12-25T23:06:58.792Z,101816.38
2018-12-25T23:09:30.624Z,101821.97
2018-12-25T23:12:02.542Z,101820.87
2018-12-25T23:14:35.579Z,101812.92
2018-12-25T23:17:07.273Z,101809.99
2018-12-25T23:19:39.041Z,101810.38
2018-12-25T23:22:10.662Z,101801.36
2018-12-25T23:24:42.404Z,101801.36
2018-12-25T23:27:14.294Z,101796.67
2018-12-25T23:29:46.186Z,101796.16
2018-12-25T23:32:25.535Z,101788.48
2018-12-25T23:34:58.049Z,101793.21
2018-12-25T23:37:29.689Z,101779.36
2018-12-25T23:40:01.385Z,101781.80
2018-12-25T23:42:37.302Z,101790.61
2018-12-25T23:45:08.931Z,101775.14
2018-12-25T23:47:40.523Z,101772.47
2018-12-25T23:50:12.888Z,101770.34
2018-12-25T23:52:44.601Z,101763.94
2018-12-25T23:55:16.224Z,101767.73
2018-12-25T23:57:47.896Z,101762.83
